sensor_id;sensor_type;location;lat;lon;timestamp;P1;durP1;ratioP1;P2;durP2;ratioP2
53245;SDS011;39569;51.090;-1.786;2023-02-01T00:02:08;3.95;;;2.42;;
53245;SDS011;39569;51.090;-1.786;2023-02-01T00:04:35;4.63;;;2.72;;
53245;SDS011;39569;51.090;-1.786;2023-02-01T00:07:01;6.32;;;2.40;;
53245;SDS011;39569;51.090;-1.786;2023-02-01T00:09:30;4.05;;;2.58;;
53245;SDS011;39569;51.090;-1.786;2023-02-01T00:11:56;4.95;;;2.33;;
53245;SDS011;39569;51.090;-1.786;2023-02-01T00:14:26;3.78;;;2.60;;
53245;SDS011;39569;51.090;-1.786;2023-02-01T00:16:53;4.45;;;2.33;;
53245;SDS011;39569;51.090;-1.786;2023-02-01T00:19:20;3.15;;;2.05;;
53245;SDS011;39569;51.090;-1.786;2023-02-01T00:21:47;5.78;;;2.25;;
53245;SDS011;39569;51.090;-1.786;2023-02-01T00:24:14;4.18;;;2.65;;
53245;SDS011;39569;51.090;-1.786;2023-02-01T00:26:42;2.47;;;2.28;;
53245;SDS011;39569;51.090;-1.786;2023-02-01T00:29:11;4.65;;;2.80;;
53245;SDS011;39569;51.090;-1.786;2023-02-01T00:31:40;1.88;;;1.73;;
53245;SDS011;39569;51.090;-1.786;2023-02-01T00:34:06;5.18;;;1.98;;
53245;SDS011;39569;51.090;-1.786;2023-02-01T00:36:34;3.05;;;2.50;;
53245;SDS011;39569;51.090;-1.786;2023-02-01T00:39:01;3.88;;;2.35;;
53245;SDS011;39569;51.090;-1.786;2023-02-01T00:41:27;2.72;;;2.40;;
53245;SDS011;39569;51.090;-1.786;2023-02-01T00:43:55;3.03;;;2.47;;
53245;SDS011;39569;51.090;-1.786;2023-02-01T00:46:22;3.05;;;2.22;;
53245;SDS011;39569;51.090;-1.786;2023-02-01T00:48:49;3.42;;;2.40;;
53245;SDS011;39569;51.090;-1.786;2023-02-01T00:51:17;4.55;;;2.85;;
53245;SDS011;39569;51.090;-1.786;2023-02-01T00:53:45;10.75;;;3.03;;
53245;SDS011;39569;51.090;-1.786;2023-02-01T00:56:12;7.15;;;3.65;;
53245;SDS011;39569;51.090;-1.786;2023-02-01T00:58:39;5.60;;;2.40;;
53245;SDS011;39569;51.090;-1.786;2023-02-01T01:01:09;4.28;;;2.05;;
53245;SDS011;39569;51.090;-1.786;2023-02-01T01:03:37;4.53;;;2.03;;
53245;SDS011;39569;51.090;-1.786;2023-02-01T01:06:06;2.30;;;2.08;;
53245;SDS011;39569;51.090;-1.786;2023-02-01T01:08:34;4.00;;;2.70;;
53245;SDS011;39569;51.090;-1.786;2023-02-01T01:11:04;3.67;;;2.97;;
53245;SDS011;39569;51.090;-1.786;2023-02-01T01:13:31;4.07;;;2.75;;
53245;SDS011;39569;51.090;-1.786;2023-02-01T01:15:59;2.95;;;2.45;;
53245;SDS011;39569;51.090;-1.786;2023-02-01T01:18:29;5.72;;;2.58;;
53245;SDS011;39569;51.090;-1.786;2023-02-01T01:20:56;3.25;;;2.53;;
53245;SDS011;39569;51.090;-1.786;2023-02-01T01:23:24;4.50;;;2.42;;
53245;SDS011;39569;51.090;-1.786;2023-02-01T01:25:51;2.55;;;2.08;;
53245;SDS011;39569;51.090;-1.786;2023-02-01T01:28:18;2.83;;;2.50;;
53245;SDS011;39569;51.090;-1.786;2023-02-01T01:30:44;2.38;;;1.67;;
53245;SDS011;39569;51.090;-1.786;2023-02-01T01:33:11;3.65;;;2.10;;
53245;SDS011;39569;51.090;-1.786;2023-02-01T01:35:39;3.15;;;2.33;;
53245;SDS011;39569;51.090;-1.786;2023-02-01T01:38:06;2.55;;;1.77;;
53245;SDS011;39569;51.090;-1.786;2023-02-01T01:40:33;3.60;;;2.70;;
53245;SDS011;39569;51.090;-1.786;2023-02-01T01:42:59;3.13;;;2.38;;
53245;SDS011;39569;51.090;-1.786;2023-02-01T01:45:27;7.00;;;2.33;;
53245;SDS011;39569;51.090;-1.786;2023-02-01T01:47:56;2.80;;;2.15;;
53245;SDS011;39569;51.090;-1.786;2023-02-01T01:50:26;3.67;;;2.13;;
53245;SDS011;39569;51.090;-1.786;2023-02-01T01:52:57;2.88;;;2.60;;
53245;SDS011;39569;51.090;-1.786;2023-02-01T01:55:27;10.27;;;3.05;;
53245;SDS011;39569;51.090;-1.786;2023-02-01T01:57:58;2.72;;;2.17;;
53245;SDS011;39569;51.090;-1.786;2023-02-01T02:00:28;6.97;;;3.20;;
53245;SDS011;39569;51.090;-1.786;2023-02-01T02:02:57;4.05;;;2.63;;
53245;SDS011;39569;51.090;-1.786;2023-02-01T02:05:28;4.85;;;2.75;;
53245;SDS011;39569;51.090;-1.786;2023-02-01T02:07:58;2.95;;;2.65;;
53245;SDS011;39569;51.090;-1.786;2023-02-01T02:10:26;3.28;;;2.00;;
53245;SDS011;39569;51.090;-1.786;2023-02-01T02:13:14;5.70;;;2.63;;
53245;SDS011;39569;51.090;-1.786;2023-02-01T02:15:43;2.58;;;2.28;;
53245;SDS011;39569;51.090;-1.786;2023-02-01T02:18:15;3.88;;;2.78;;
53245;SDS011;39569;51.090;-1.786;2023-02-01T02:20:52;5.88;;;2.42;;
53245;SDS011;39569;51.090;-1.786;2023-02-01T02:27:19;4.47;;;2.88;;
53245;SDS011;39569;51.090;-1.786;2023-02-01T02:30:12;13.20;;;2.03;;
53245;SDS011;39569;51.090;-1.786;2023-02-01T02:36:08;1.90;;;1.80;;
53245;SDS011;39569;51.090;-1.786;2023-02-01T02:38:40;2.72;;;2.20;;
53245;SDS011;39569;51.090;-1.786;2023-02-01T02:41:13;3.42;;;2.40;;
53245;SDS011;39569;51.090;-1.786;2023-02-01T02:43:58;4.30;;;2.25;;
53245;SDS011;39569;51.090;-1.786;2023-02-01T02:46:46;3.58;;;2.20;;
53245;SDS011;39569;51.090;-1.786;2023-02-01T02:49:36;4.68;;;2.58;;
53245;SDS011;39569;51.090;-1.786;2023-02-01T02:52:31;8.13;;;2.10;;
53245;SDS011;39569;51.090;-1.786;2023-02-01T02:55:19;4.45;;;1.98;;
53245;SDS011;39569;51.090;-1.786;2023-02-01T02:57:47;2.15;;;1.85;;
53245;SDS011;39569;51.090;-1.786;2023-02-01T03:00:32;3.10;;;1.85;;
53245;SDS011;39569;51.090;-1.786;2023-02-01T03:03:17;2.85;;;2.60;;
53245;SDS011;39569;51.090;-1.786;2023-02-01T03:06:03;2.38;;;2.10;;
53245;SDS011;39569;51.090;-1.786;2023-02-01T03:08:30;4.63;;;1.92;;
53245;SDS011;39569;51.090;-1.786;2023-02-01T03:10:58;2.40;;;1.52;;
53245;SDS011;39569;51.090;-1.786;2023-02-01T03:13:31;3.08;;;2.53;;
53245;SDS011;39569;51.090;-1.786;2023-02-01T03:16:03;5.93;;;3.22;;
53245;SDS011;39569;51.090;-1.786;2023-02-01T03:18:39;2.95;;;2.20;;
53245;SDS011;39569;51.090;-1.786;2023-02-01T03:21:15;2.90;;;2.63;;
53245;SDS011;39569;51.090;-1.786;2023-02-01T03:23:44;3.50;;;2.60;;
53245;SDS011;39569;51.090;-1.786;2023-02-01T03:26:14;9.57;;;2.42;;
53245;SDS011;39569;51.090;-1.786;2023-02-01T03:28:47;2.63;;;1.90;;
53245;SDS011;39569;51.090;-1.786;2023-02-01T03:31:19;4.28;;;2.28;;
53245;SDS011;39569;51.090;-1.786;2023-02-01T03:33:46;4.60;;;2.25;;
53245;SDS011;39569;51.090;-1.786;2023-02-01T03:36:17;3.55;;;2.17;;
53245;SDS011;39569;51.090;-1.786;2023-02-01T03:38:52;4.40;;;2.58;;
53245;SDS011;39569;51.090;-1.786;2023-02-01T03:41:27;2.88;;;1.73;;
53245;SDS011;39569;51.090;-1.786;2023-02-01T03:43:59;4.18;;;2.83;;
53245;SDS011;39569;51.090;-1.786;2023-02-01T03:46:31;2.28;;;1.85;;
53245;SDS011;39569;51.090;-1.786;2023-02-01T03:49:01;2.75;;;1.90;;
53245;SDS011;39569;51.090;-1.786;2023-02-01T03:51:32;2.60;;;2.03;;
53245;SDS011;39569;51.090;-1.786;2023-02-01T03:54:00;2.35;;;2.15;;
53245;SDS011;39569;51.090;-1.786;2023-02-01T03:56:29;2.40;;;2.17;;
53245;SDS011;39569;51.090;-1.786;2023-02-01T03:58:57;4.18;;;2.00;;
53245;SDS011;39569;51.090;-1.786;2023-02-01T04:01:25;4.80;;;2.80;;
53245;SDS011;39569;51.090;-1.786;2023-02-01T04:03:53;2.15;;;1.95;;
53245;SDS011;39569;51.090;-1.786;2023-02-01T04:06:20;4.50;;;2.42;;
53245;SDS011;39569;51.090;-1.786;2023-02-01T04:08:48;2.95;;;2.03;;
53245;SDS011;39569;51.090;-1.786;2023-02-01T04:11:15;4.35;;;2.42;;
53245;SDS011;39569;51.090;-1.786;2023-02-01T04:13:42;6.43;;;2.25;;
53245;SDS011;39569;51.090;-1.786;2023-02-01T04:16:09;2.08;;;1.98;;
53245;SDS011;39569;51.090;-1.786;2023-02-01T04:18:36;2.58;;;2.30;;
53245;SDS011;39569;51.090;-1.786;2023-02-01T04:21:03;2.88;;;2.53;;
53245;SDS011;39569;51.090;-1.786;2023-02-01T04:23:30;3.63;;;2.20;;
53245;SDS011;39569;51.090;-1.786;2023-02-01T04:26:02;2.30;;;2.10;;
53245;SDS011;39569;51.090;-1.786;2023-02-01T04:28:30;2.75;;;1.95;;
53245;SDS011;39569;51.090;-1.786;2023-02-01T04:30:57;2.83;;;2.63;;
53245;SDS011;39569;51.090;-1.786;2023-02-01T04:33:24;4.95;;;2.33;;
53245;SDS011;39569;51.090;-1.786;2023-02-01T04:35:50;5.53;;;2.08;;
53245;SDS011;39569;51.090;-1.786;2023-02-01T04:38:17;5.75;;;2.33;;
53245;SDS011;39569;51.090;-1.786;2023-02-01T04:40:46;3.85;;;2.00;;
53245;SDS011;39569;51.090;-1.786;2023-02-01T04:43:15;2.72;;;1.67;;
53245;SDS011;39569;51.090;-1.786;2023-02-01T04:45:46;7.47;;;2.47;;
53245;SDS011;39569;51.090;-1.786;2023-02-01T04:48:13;7.15;;;2.45;;
53245;SDS011;39569;51.090;-1.786;2023-02-01T04:50:40;6.50;;;2.40;;
53245;SDS011;39569;51.090;-1.786;2023-02-01T04:53:07;2.55;;;2.30;;
53245;SDS011;39569;51.090;-1.786;2023-02-01T04:55:34;5.00;;;2.17;;
53245;SDS011;39569;51.090;-1.786;2023-02-01T04:58:00;2.25;;;1.92;;
53245;SDS011;39569;51.090;-1.786;2023-02-01T05:00:29;2.72;;;1.95;;
53245;SDS011;39569;51.090;-1.786;2023-02-01T05:02:55;2.40;;;2.30;;
53245;SDS011;39569;51.090;-1.786;2023-02-01T05:05:22;2.50;;;2.22;;
53245;SDS011;39569;51.090;-1.786;2023-02-01T05:07:49;3.17;;;1.92;;
53245;SDS011;39569;51.090;-1.786;2023-02-01T05:10:16;2.70;;;2.45;;
53245;SDS011;39569;51.090;-1.786;2023-02-01T05:12:42;2.88;;;2.33;;
53245;SDS011;39569;51.090;-1.786;2023-02-01T05:15:28;4.15;;;2.67;;
53245;SDS011;39569;51.090;-1.786;2023-02-01T05:17:55;3.42;;;2.38;;
53245;SDS011;39569;51.090;-1.786;2023-02-01T05:20:22;2.55;;;1.40;;
53245;SDS011;39569;51.090;-1.786;2023-02-01T05:22:49;2.83;;;2.17;;
53245;SDS011;39569;51.090;-1.786;2023-02-01T05:25:16;2.92;;;1.88;;
53245;SDS011;39569;51.090;-1.786;2023-02-01T05:27:44;2.83;;;2.25;;
53245;SDS011;39569;51.090;-1.786;2023-02-01T05:30:11;1.90;;;1.80;;
53245;SDS011;39569;51.090;-1.786;2023-02-01T05:32:40;1.88;;;1.60;;
53245;SDS011;39569;51.090;-1.786;2023-02-01T05:35:07;4.20;;;2.80;;
53245;SDS011;39569;51.090;-1.786;2023-02-01T05:37:34;3.03;;;2.20;;
53245;SDS011;39569;51.090;-1.786;2023-02-01T05:40:01;2.78;;;2.25;;
53245;SDS011;39569;51.090;-1.786;2023-02-01T05:42:27;2.90;;;2.20;;
53245;SDS011;39569;51.090;-1.786;2023-02-01T05:44:54;6.40;;;2.65;;
53245;SDS011;39569;51.090;-1.786;2023-02-01T05:47:21;3.80;;;2.42;;
53245;SDS011;39569;51.090;-1.786;2023-02-01T05:49:49;2.58;;;2.15;;
53245;SDS011;39569;51.090;-1.786;2023-02-01T05:52:16;2.63;;;2.13;;
53245;SDS011;39569;51.090;-1.786;2023-02-01T05:54:44;5.78;;;2.40;;
53245;SDS011;39569;51.090;-1.786;2023-02-01T05:57:11;3.78;;;2.47;;
53245;SDS011;39569;51.090;-1.786;2023-02-01T05:59:38;3.88;;;2.50;;
53245;SDS011;39569;51.090;-1.786;2023-02-01T06:02:06;3.28;;;2.08;;
53245;SDS011;39569;51.090;-1.786;2023-02-01T06:04:33;2.88;;;2.33;;
53245;SDS011;39569;51.090;-1.786;2023-02-01T06:07:01;5.35;;;2.47;;
53245;SDS011;39569;51.090;-1.786;2023-02-01T06:09:28;4.22;;;2.38;;
53245;SDS011;39569;51.090;-1.786;2023-02-01T06:11:55;1.95;;;1.58;;
53245;SDS011;39569;51.090;-1.786;2023-02-01T06:14:22;2.13;;;1.80;;
53245;SDS011;39569;51.090;-1.786;2023-02-01T06:16:50;3.85;;;2.15;;
53245;SDS011;39569;51.090;-1.786;2023-02-01T06:19:16;1.90;;;1.77;;
53245;SDS011;39569;51.090;-1.786;2023-02-01T06:21:43;4.13;;;2.53;;
53245;SDS011;39569;51.090;-1.786;2023-02-01T06:24:11;7.72;;;1.90;;
53245;SDS011;39569;51.090;-1.786;2023-02-01T06:26:38;2.33;;;1.90;;
53245;SDS011;39569;51.090;-1.786;2023-02-01T06:29:05;3.20;;;2.03;;
53245;SDS011;39569;51.090;-1.786;2023-02-01T06:31:32;2.85;;;1.98;;
53245;SDS011;39569;51.090;-1.786;2023-02-01T06:33:58;2.17;;;1.75;;
53245;SDS011;39569;51.090;-1.786;2023-02-01T06:36:25;4.05;;;2.75;;
53245;SDS011;39569;51.090;-1.786;2023-02-01T06:38:52;1.75;;;1.65;;
53245;SDS011;39569;51.090;-1.786;2023-02-01T06:41:22;3.38;;;1.40;;
53245;SDS011;39569;51.090;-1.786;2023-02-01T06:43:50;6.03;;;2.03;;
53245;SDS011;39569;51.090;-1.786;2023-02-01T06:46:17;2.13;;;2.03;;
53245;SDS011;39569;51.090;-1.786;2023-02-01T06:48:44;2.72;;;2.20;;
53245;SDS011;39569;51.090;-1.786;2023-02-01T06:51:18;2.85;;;2.58;;
53245;SDS011;39569;51.090;-1.786;2023-02-01T06:53:47;5.03;;;2.28;;
53245;SDS011;39569;51.090;-1.786;2023-02-01T06:56:14;2.95;;;1.55;;
53245;SDS011;39569;51.090;-1.786;2023-02-01T06:58:42;3.10;;;2.53;;
53245;SDS011;39569;51.090;-1.786;2023-02-01T07:01:09;2.75;;;2.00;;
53245;SDS011;39569;51.090;-1.786;2023-02-01T07:03:36;1.90;;;1.77;;
53245;SDS011;39569;51.090;-1.786;2023-02-01T07:06:04;2.45;;;2.22;;
53245;SDS011;39569;51.090;-1.786;2023-02-01T07:08:32;2.20;;;2.00;;
53245;SDS011;39569;51.090;-1.786;2023-02-01T07:11:01;3.38;;;1.67;;
53245;SDS011;39569;51.090;-1.786;2023-02-01T07:13:28;2.60;;;2.15;;
53245;SDS011;39569;51.090;-1.786;2023-02-01T07:15:58;3.53;;;1.92;;
53245;SDS011;39569;51.090;-1.786;2023-02-01T07:18:26;1.98;;;1.77;;
53245;SDS011;39569;51.090;-1.786;2023-02-01T07:20:53;2.75;;;1.50;;
53245;SDS011;39569;51.090;-1.786;2023-02-01T07:23:20;3.10;;;2.20;;
53245;SDS011;39569;51.090;-1.786;2023-02-01T07:25:47;2.83;;;1.90;;
53245;SDS011;39569;51.090;-1.786;2023-02-01T07:28:14;4.30;;;2.53;;
53245;SDS011;39569;51.090;-1.786;2023-02-01T07:30:41;5.57;;;2.10;;
53245;SDS011;39569;51.090;-1.786;2023-02-01T07:33:09;11.07;;;2.53;;
53245;SDS011;39569;51.090;-1.786;2023-02-01T07:35:35;4.15;;;2.13;;
53245;SDS011;39569;51.090;-1.786;2023-02-01T07:38:02;3.08;;;2.78;;
53245;SDS011;39569;51.090;-1.786;2023-02-01T07:40:29;2.08;;;1.60;;
53245;SDS011;39569;51.090;-1.786;2023-02-01T07:42:56;2.25;;;2.05;;
53245;SDS011;39569;51.090;-1.786;2023-02-01T07:45:22;2.55;;;2.00;;
53245;SDS011;39569;51.090;-1.786;2023-02-01T07:47:51;5.70;;;2.55;;
53245;SDS011;39569;51.090;-1.786;2023-02-01T07:50:20;6.43;;;1.83;;
53245;SDS011;39569;51.090;-1.786;2023-02-01T07:52:46;2.97;;;2.30;;
53245;SDS011;39569;51.090;-1.786;2023-02-01T07:55:13;12.98;;;4.90;;
53245;SDS011;39569;51.090;-1.786;2023-02-01T07:57:40;12.05;;;5.65;;
53245;SDS011;39569;51.090;-1.786;2023-02-01T08:00:07;10.93;;;3.92;;
53245;SDS011;39569;51.090;-1.786;2023-02-01T08:02:52;18.33;;;6.13;;
53245;SDS011;39569;51.090;-1.786;2023-02-01T08:05:20;20.63;;;4.32;;
53245;SDS011;39569;51.090;-1.786;2023-02-01T08:07:48;9.05;;;3.95;;
53245;SDS011;39569;51.090;-1.786;2023-02-01T08:10:15;10.88;;;4.28;;
53245;SDS011;39569;51.090;-1.786;2023-02-01T08:12:42;9.65;;;4.95;;
53245;SDS011;39569;51.090;-1.786;2023-02-01T08:15:12;7.95;;;3.58;;
53245;SDS011;39569;51.090;-1.786;2023-02-01T08:17:39;13.52;;;3.75;;
53245;SDS011;39569;51.090;-1.786;2023-02-01T08:20:07;8.02;;;4.22;;
53245;SDS011;39569;51.090;-1.786;2023-02-01T08:22:36;6.10;;;3.65;;
53245;SDS011;39569;51.090;-1.786;2023-02-01T08:25:03;7.65;;;3.58;;
53245;SDS011;39569;51.090;-1.786;2023-02-01T08:27:32;8.40;;;4.13;;
53245;SDS011;39569;51.090;-1.786;2023-02-01T08:29:58;7.15;;;3.50;;
53245;SDS011;39569;51.090;-1.786;2023-02-01T08:32:25;8.88;;;3.83;;
53245;SDS011;39569;51.090;-1.786;2023-02-01T08:34:52;7.47;;;4.10;;
53245;SDS011;39569;51.090;-1.786;2023-02-01T08:37:19;9.10;;;4.38;;
53245;SDS011;39569;51.090;-1.786;2023-02-01T08:39:48;5.15;;;3.83;;
53245;SDS011;39569;51.090;-1.786;2023-02-01T08:42:15;11.18;;;3.90;;
53245;SDS011;39569;51.090;-1.786;2023-02-01T08:45:00;10.80;;;5.27;;
53245;SDS011;39569;51.090;-1.786;2023-02-01T08:47:27;8.63;;;3.53;;
53245;SDS011;39569;51.090;-1.786;2023-02-01T08:49:54;9.80;;;3.72;;
53245;SDS011;39569;51.090;-1.786;2023-02-01T08:52:21;6.38;;;3.70;;
53245;SDS011;39569;51.090;-1.786;2023-02-01T08:54:49;9.77;;;4.57;;
53245;SDS011;39569;51.090;-1.786;2023-02-01T08:57:16;9.70;;;3.20;;
53245;SDS011;39569;51.090;-1.786;2023-02-01T08:59:43;12.32;;;3.97;;
53245;SDS011;39569;51.090;-1.786;2023-02-01T09:02:11;7.25;;;3.08;;
53245;SDS011;39569;51.090;-1.786;2023-02-01T09:04:38;5.85;;;3.80;;
53245;SDS011;39569;51.090;-1.786;2023-02-01T09:07:05;7.85;;;3.67;;
53245;SDS011;39569;51.090;-1.786;2023-02-01T09:09:32;6.03;;;3.35;;
53245;SDS011;39569;51.090;-1.786;2023-02-01T09:12:00;9.90;;;4.45;;
53245;SDS011;39569;51.090;-1.786;2023-02-01T09:14:27;6.72;;;3.67;;
53245;SDS011;39569;51.090;-1.786;2023-02-01T09:16:53;5.35;;;3.28;;
53245;SDS011;39569;51.090;-1.786;2023-02-01T09:19:20;6.65;;;3.33;;
53245;SDS011;39569;51.090;-1.786;2023-02-01T09:21:47;7.00;;;3.15;;
53245;SDS011;39569;51.090;-1.786;2023-02-01T09:24:14;7.03;;;4.20;;
53245;SDS011;39569;51.090;-1.786;2023-02-01T09:26:40;8.48;;;3.10;;
53245;SDS011;39569;51.090;-1.786;2023-02-01T09:29:08;14.93;;;5.53;;
53245;SDS011;39569;51.090;-1.786;2023-02-01T09:31:38;14.57;;;5.25;;
53245;SDS011;39569;51.090;-1.786;2023-02-01T09:34:06;12.98;;;3.72;;
53245;SDS011;39569;51.090;-1.786;2023-02-01T09:36:33;17.52;;;4.25;;
53245;SDS011;39569;51.090;-1.786;2023-02-01T09:39:00;10.85;;;4.30;;
53245;SDS011;39569;51.090;-1.786;2023-02-01T09:41:34;16.52;;;3.55;;
53245;SDS011;39569;51.090;-1.786;2023-02-01T09:44:13;24.55;;;5.80;;
53245;SDS011;39569;51.090;-1.786;2023-02-01T09:46:47;17.02;;;4.82;;
53245;SDS011;39569;51.090;-1.786;2023-02-01T09:49:18;16.45;;;5.40;;
53245;SDS011;39569;51.090;-1.786;2023-02-01T09:51:48;24.95;;;5.00;;
53245;SDS011;39569;51.090;-1.786;2023-02-01T09:54:17;18.27;;;5.10;;
53245;SDS011;39569;51.090;-1.786;2023-02-01T09:56:47;9.43;;;4.82;;
53245;SDS011;39569;51.090;-1.786;2023-02-01T09:59:23;17.90;;;5.80;;
53245;SDS011;39569;51.090;-1.786;2023-02-01T10:01:58;15.40;;;4.45;;
53245;SDS011;39569;51.090;-1.786;2023-02-01T10:04:27;14.20;;;5.25;;
53245;SDS011;39569;51.090;-1.786;2023-02-01T10:06:57;13.13;;;5.53;;
53245;SDS011;39569;51.090;-1.786;2023-02-01T10:09:42;20.20;;;4.43;;
53245;SDS011;39569;51.090;-1.786;2023-02-01T10:12:21;21.13;;;6.22;;
53245;SDS011;39569;51.090;-1.786;2023-02-01T10:15:13;10.07;;;4.88;;
53245;SDS011;39569;51.090;-1.786;2023-02-01T10:17:52;8.68;;;4.53;;
53245;SDS011;39569;51.090;-1.786;2023-02-01T10:20:29;12.90;;;6.43;;
53245;SDS011;39569;51.090;-1.786;2023-02-01T10:23:06;13.77;;;5.43;;
53245;SDS011;39569;51.090;-1.786;2023-02-01T10:28:11;28.70;;;6.50;;
53245;SDS011;39569;51.090;-1.786;2023-02-01T10:30:44;9.57;;;4.68;;
53245;SDS011;39569;51.090;-1.786;2023-02-01T10:33:15;14.45;;;4.72;;
53245;SDS011;39569;51.090;-1.786;2023-02-01T10:35:43;8.95;;;4.55;;
53245;SDS011;39569;51.090;-1.786;2023-02-01T10:38:22;9.45;;;5.05;;
53245;SDS011;39569;51.090;-1.786;2023-02-01T10:40:51;17.27;;;5.28;;
53245;SDS011;39569;51.090;-1.786;2023-02-01T10:43:21;26.08;;;5.40;;
53245;SDS011;39569;51.090;-1.786;2023-02-01T10:45:49;12.70;;;4.13;;
53245;SDS011;39569;51.090;-1.786;2023-02-01T10:48:16;11.70;;;5.45;;
53245;SDS011;39569;51.090;-1.786;2023-02-01T10:50:44;11.45;;;5.05;;
53245;SDS011;39569;51.090;-1.786;2023-02-01T10:53:18;11.65;;;4.28;;
53245;SDS011;39569;51.090;-1.786;2023-02-01T10:55:48;11.95;;;4.22;;
53245;SDS011;39569;51.090;-1.786;2023-02-01T10:58:16;12.52;;;4.35;;
53245;SDS011;39569;51.090;-1.786;2023-02-01T11:00:46;10.68;;;4.47;;
53245;SDS011;39569;51.090;-1.786;2023-02-01T11:06:13;7.55;;;4.53;;
53245;SDS011;39569;51.090;-1.786;2023-02-01T11:08:46;9.82;;;4.90;;
53245;SDS011;39569;51.090;-1.786;2023-02-01T11:11:14;15.30;;;4.90;;
53245;SDS011;39569;51.090;-1.786;2023-02-01T11:13:41;10.32;;;4.95;;
53245;SDS011;39569;51.090;-1.786;2023-02-01T11:16:11;9.23;;;4.30;;
53245;SDS011;39569;51.090;-1.786;2023-02-01T11:18:41;9.48;;;4.10;;
53245;SDS011;39569;51.090;-1.786;2023-02-01T11:21:08;10.38;;;5.22;;
53245;SDS011;39569;51.090;-1.786;2023-02-01T11:23:39;17.00;;;5.20;;
53245;SDS011;39569;51.090;-1.786;2023-02-01T11:26:10;12.00;;;5.70;;
53245;SDS011;39569;51.090;-1.786;2023-02-01T11:28:39;9.75;;;6.07;;
53245;SDS011;39569;51.090;-1.786;2023-02-01T11:31:12;14.77;;;6.53;;
53245;SDS011;39569;51.090;-1.786;2023-02-01T11:33:45;15.10;;;5.57;;
53245;SDS011;39569;51.090;-1.786;2023-02-01T11:36:16;16.70;;;5.65;;
53245;SDS011;39569;51.090;-1.786;2023-02-01T11:38:46;21.05;;;5.63;;
53245;SDS011;39569;51.090;-1.786;2023-02-01T11:41:21;20.60;;;5.57;;
53245;SDS011;39569;51.090;-1.786;2023-02-01T11:43:50;16.55;;;6.18;;
53245;SDS011;39569;51.090;-1.786;2023-02-01T11:46:19;18.33;;;6.10;;
53245;SDS011;39569;51.090;-1.786;2023-02-01T11:48:55;28.98;;;6.65;;
53245;SDS011;39569;51.090;-1.786;2023-02-01T11:51:30;18.85;;;7.25;;
53245;SDS011;39569;51.090;-1.786;2023-02-01T11:57:07;18.10;;;6.25;;
53245;SDS011;39569;51.090;-1.786;2023-02-01T11:59:48;11.75;;;6.43;;
53245;SDS011;39569;51.090;-1.786;2023-02-01T12:02:35;23.35;;;5.25;;
53245;SDS011;39569;51.090;-1.786;2023-02-01T12:05:23;15.80;;;6.03;;
53245;SDS011;39569;51.090;-1.786;2023-02-01T12:08:01;15.60;;;5.47;;
53245;SDS011;39569;51.090;-1.786;2023-02-01T12:10:42;12.65;;;6.10;;
53245;SDS011;39569;51.090;-1.786;2023-02-01T12:13:22;17.33;;;6.30;;
53245;SDS011;39569;51.090;-1.786;2023-02-01T12:21:54;14.15;;;4.32;;
53245;SDS011;39569;51.090;-1.786;2023-02-01T12:30:41;9.77;;;5.20;;
53245;SDS011;39569;51.090;-1.786;2023-02-01T12:33:28;20.75;;;6.10;;
53245;SDS011;39569;51.090;-1.786;2023-02-01T12:36:06;17.10;;;6.50;;
53245;SDS011;39569;51.090;-1.786;2023-02-01T12:38:44;13.07;;;5.80;;
53245;SDS011;39569;51.090;-1.786;2023-02-01T12:44:12;13.45;;;5.15;;
53245;SDS011;39569;51.090;-1.786;2023-02-01T12:46:52;20.30;;;5.82;;
53245;SDS011;39569;51.090;-1.786;2023-02-01T12:49:21;11.98;;;6.13;;
53245;SDS011;39569;51.090;-1.786;2023-02-01T12:51:57;8.30;;;4.30;;
53245;SDS011;39569;51.090;-1.786;2023-02-01T12:54:31;16.00;;;5.35;;
53245;SDS011;39569;51.090;-1.786;2023-02-01T12:57:04;10.30;;;5.30;;
53245;SDS011;39569;51.090;-1.786;2023-02-01T12:59:38;10.50;;;3.95;;
53245;SDS011;39569;51.090;-1.786;2023-02-01T13:02:11;18.30;;;4.97;;
53245;SDS011;39569;51.090;-1.786;2023-02-01T13:04:48;15.32;;;4.85;;
53245;SDS011;39569;51.090;-1.786;2023-02-01T13:07:24;9.85;;;5.03;;
53245;SDS011;39569;51.090;-1.786;2023-02-01T13:09:58;14.05;;;4.30;;
53245;SDS011;39569;51.090;-1.786;2023-02-01T13:12:31;11.68;;;4.53;;
53245;SDS011;39569;51.090;-1.786;2023-02-01T13:15:03;9.63;;;4.80;;
53245;SDS011;39569;51.090;-1.786;2023-02-01T13:17:35;8.70;;;4.75;;
53245;SDS011;39569;51.090;-1.786;2023-02-01T13:20:06;10.50;;;4.72;;
53245;SDS011;39569;51.090;-1.786;2023-02-01T13:22:43;12.77;;;4.57;;
53245;SDS011;39569;51.090;-1.786;2023-02-01T13:25:17;16.98;;;4.13;;
53245;SDS011;39569;51.090;-1.786;2023-02-01T13:27:51;6.32;;;4.55;;
53245;SDS011;39569;51.090;-1.786;2023-02-01T13:30:21;16.08;;;4.75;;
53245;SDS011;39569;51.090;-1.786;2023-02-01T13:33:01;16.85;;;5.30;;
53245;SDS011;39569;51.090;-1.786;2023-02-01T13:35:48;13.00;;;4.68;;
53245;SDS011;39569;51.090;-1.786;2023-02-01T13:38:39;8.82;;;4.63;;
53245;SDS011;39569;51.090;-1.786;2023-02-01T13:41:30;19.63;;;4.93;;
53245;SDS011;39569;51.090;-1.786;2023-02-01T13:44:00;8.60;;;3.53;;
53245;SDS011;39569;51.090;-1.786;2023-02-01T13:46:30;12.55;;;5.40;;
53245;SDS011;39569;51.090;-1.786;2023-02-01T13:49:06;8.23;;;4.90;;
53245;SDS011;39569;51.090;-1.786;2023-02-01T13:51:35;17.50;;;3.65;;
53245;SDS011;39569;51.090;-1.786;2023-02-01T13:54:06;12.52;;;4.72;;
53245;SDS011;39569;51.090;-1.786;2023-02-01T13:56:41;22.58;;;4.93;;
53245;SDS011;39569;51.090;-1.786;2023-02-01T14:08:35;14.35;;;4.07;;
53245;SDS011;39569;51.090;-1.786;2023-02-01T14:11:08;9.18;;;4.57;;
53245;SDS011;39569;51.090;-1.786;2023-02-01T14:14:36;14.40;;;3.75;;
53245;SDS011;39569;51.090;-1.786;2023-02-01T14:23:21;8.68;;;4.13;;
53245;SDS011;39569;51.090;-1.786;2023-02-01T14:26:06;6.82;;;3.95;;
53245;SDS011;39569;51.090;-1.786;2023-02-01T14:28:59;7.10;;;4.20;;
53245;SDS011;39569;51.090;-1.786;2023-02-01T14:31:34;7.88;;;3.45;;
53245;SDS011;39569;51.090;-1.786;2023-02-01T14:34:10;9.57;;;3.28;;
53245;SDS011;39569;51.090;-1.786;2023-02-01T14:36:43;27.98;;;4.22;;
53245;SDS011;39569;51.090;-1.786;2023-02-01T14:39:20;5.78;;;4.22;;
53245;SDS011;39569;51.090;-1.786;2023-02-01T14:41:54;7.30;;;3.35;;
53245;SDS011;39569;51.090;-1.786;2023-02-01T14:44:30;7.20;;;3.72;;
53245;SDS011;39569;51.090;-1.786;2023-02-01T14:47:04;5.90;;;3.63;;
53245;SDS011;39569;51.090;-1.786;2023-02-01T14:49:34;4.72;;;2.75;;
53245;SDS011;39569;51.090;-1.786;2023-02-01T14:52:05;6.93;;;3.42;;
53245;SDS011;39569;51.090;-1.786;2023-02-01T14:54:36;10.48;;;3.85;;
53245;SDS011;39569;51.090;-1.786;2023-02-01T14:57:08;10.77;;;3.53;;
53245;SDS011;39569;51.090;-1.786;2023-02-01T14:59:41;7.55;;;3.28;;
53245;SDS011;39569;51.090;-1.786;2023-02-01T15:02:16;6.50;;;3.75;;
53245;SDS011;39569;51.090;-1.786;2023-02-01T15:04:46;5.13;;;3.25;;
53245;SDS011;39569;51.090;-1.786;2023-02-01T15:07:20;9.77;;;3.45;;
53245;SDS011;39569;51.090;-1.786;2023-02-01T15:09:49;5.53;;;3.20;;
53245;SDS011;39569;51.090;-1.786;2023-02-01T15:12:17;7.25;;;3.53;;
53245;SDS011;39569;51.090;-1.786;2023-02-01T15:15:03;7.40;;;2.92;;
53245;SDS011;39569;51.090;-1.786;2023-02-01T15:17:39;2.95;;;2.72;;
53245;SDS011;39569;51.090;-1.786;2023-02-01T15:20:12;4.75;;;3.60;;
53245;SDS011;39569;51.090;-1.786;2023-02-01T15:22:41;4.00;;;3.20;;
53245;SDS011;39569;51.090;-1.786;2023-02-01T15:25:17;10.93;;;2.95;;
53245;SDS011;39569;51.090;-1.786;2023-02-01T15:27:46;8.65;;;4.22;;
53245;SDS011;39569;51.090;-1.786;2023-02-01T15:30:16;9.43;;;3.80;;
53245;SDS011;39569;51.090;-1.786;2023-02-01T15:32:46;9.85;;;3.33;;
53245;SDS011;39569;51.090;-1.786;2023-02-01T15:35:32;5.47;;;3.30;;
53245;SDS011;39569;51.090;-1.786;2023-02-01T15:40:54;13.27;;;4.38;;
53245;SDS011;39569;51.090;-1.786;2023-02-01T15:43:23;7.40;;;3.22;;